Time;durP1;ratioP1;P1;durP2;ratioP2;P2;SDS_P1;SDS_P2;PMS_P1;PMS_P2;Temp;Humidity;BMP_temperature;BMP_pressure;BME280_temperature;BME280_humidity;BME280_pressure;Samples;Min_cycle;Max_cycle;Signal;HPM_P1;HPM_P2
2022/01/20 00:00:33;;;;;;;51.83;22.02;;;;;;;-2.31;100.00;100742.28;5073052;28;20472;-70
2022/01/20 00:03:10;;;;;;;45.70;21.45;;;;;;;-2.17;100.00;100723.13;5058355;28;20151;-71
2022/01/20 00:06:09;;;;;;;47.10;19.88;;;;;;;-2.19;100.00;100722.25;5076855;28;20082;-71
2022/01/20 00:08:36;;;;;;;46.92;20.65;;;;;;;-2.15;100.00;100723.97;5076632;28;20036;-71
2022/01/20 00:27:51;;;;;;;38.42;17.65;;;;;;;-2.61;100.00;100697.84;5076129;28;20041;-72
2022/01/20 00:33:18;;;;;;;39.13;18.30;;;;;;;-2.55;100.00;100703.09;5075532;28;20049;-73
2022/01/20 00:38:31;;;;;;;38.15;18.30;;;;;;;-2.70;100.00;100693.53;5076195;28;20106;-70
2022/01/20 00:41:00;;;;;;;38.15;18.90;;;;;;;-2.65;100.00;100697.00;5076110;28;20040;-70
2022/01/20 00:43:28;;;;;;;43.92;19.05;;;;;;;-2.67;100.00;100698.75;5075697;28;20466;-70
2022/01/20 00:45:58;;;;;;;41.30;18.25;;;;;;;-2.72;100.00;100712.66;5075551;28;20072;-70
2022/01/20 00:48:27;;;;;;;42.72;18.98;;;;;;;-2.77;100.00;100715.28;5057656;28;20052;-70
2022/01/20 00:50:55;;;;;;;37.67;18.67;;;;;;;-2.84;100.00;100718.72;5075735;28;20132;-71
2022/01/20 00:53:23;;;;;;;37.78;18.10;;;;;;;-2.81;100.00;100712.63;5075462;28;20143;-72
2022/01/20 00:55:51;;;;;;;39.03;17.95;;;;;;;-2.90;100.00;100719.56;5075832;28;20051;-72
2022/01/20 00:58:20;;;;;;;38.75;18.38;;;;;;;-2.91;100.00;100719.56;5075394;28;20094;-71
2022/01/20 01:00:50;;;;;;;40.22;18.40;;;;;;;-2.93;100.00;100727.41;5075514;28;20044;-71
2022/01/20 01:03:21;;;;;;;38.13;18.35;;;;;;;-2.93;100.00;100726.53;5075020;28;20040;-72
2022/01/20 01:06:02;;;;;;;45.15;18.10;;;;;;;-2.96;100.00;100716.09;5075418;28;20040;-73
2022/01/20 01:08:32;;;;;;;35.72;17.70;;;;;;;-2.91;100.00;100728.28;5075629;28;20076;-72
2022/01/20 01:11:01;;;;;;;39.00;17.08;;;;;;;-2.86;100.00;100724.81;5075382;28;20036;-72
2022/01/20 01:13:30;;;;;;;38.53;17.42;;;;;;;-2.83;100.00;100727.44;5075016;28;20068;-72
2022/01/20 01:15:58;;;;;;;36.72;17.05;;;;;;;-2.81;100.00;100736.13;5075501;28;20043;-75
2022/01/20 01:21:28;;;;;;;36.03;17.15;;;;;;;-2.77;100.00;100738.78;5056781;28;20531;-70
2022/01/20 01:23:57;;;;;;;35.00;16.13;;;;;;;-2.63;100.00;100736.16;5075243;28;20119;-72
2022/01/20 01:26:28;;;;;;;38.67;16.45;;;;;;;-2.49;100.00;100717.91;5056873;28;20127;-71
2022/01/20 01:28:58;;;;;;;35.67;16.58;;;;;;;-2.31;100.00;100710.94;5074888;28;20485;-71
2022/01/20 01:31:38;;;;;;;37.78;15.90;;;;;;;-2.05;100.00;100713.50;5074713;28;20493;-72
2022/01/20 01:34:10;;;;;;;39.30;16.30;;;;;;;-1.93;100.00;100694.34;5075184;28;20043;-74
2022/01/20 01:36:51;;;;;;;39.10;16.88;;;;;;;-1.86;100.00;100687.31;5075071;28;20441;-74
2022/01/20 01:39:19;;;;;;;32.80;17.35;;;;;;;-1.79;100.00;100681.22;5074655;28;20106;-74
2022/01/20 01:41:47;;;;;;;34.63;16.52;;;;;;;-1.84;100.00;100677.72;5075007;28;20074;-71
2022/01/20 01:44:22;;;;;;;37.05;15.90;;;;;;;-1.77;100.00;100679.44;5074623;28;20078;-72
2022/01/20 01:46:51;;;;;;;38.00;16.50;;;;;;;-1.76;100.00;100681.19;5075073;28;20037;-71
2022/01/20 01:49:21;;;;;;;35.63;15.48;;;;;;;-1.81;100.00;100676.00;5074183;28;20048;-71
2022/01/20 01:51:49;;;;;;;42.13;18.10;;;;;;;-1.81;100.00;100672.50;5074928;28;20044;-72
2022/01/20 01:54:18;;;;;;;36.53;17.27;;;;;;;-1.75;100.00;100655.03;5056332;28;20142;-73
2022/01/20 01:56:48;;;;;;;36.67;17.10;;;;;;;-1.82;100.00;100660.31;5074553;28;20055;-72
2022/01/20 01:59:17;;;;;;;38.05;16.65;;;;;;;-1.75;100.00;100646.31;5074400;28;20037;-72
2022/01/20 02:01:45;;;;;;;36.67;16.90;;;;;;;-1.71;100.00;100649.81;5074217;28;20045;-72
2022/01/20 02:04:17;;;;;;;34.72;16.27;;;;;;;-1.65;100.00;100645.41;5074174;28;20143;-73
2022/01/20 02:17:48;;;;;;;32.92;16.60;;;;;;;-1.71;100.00;100618.41;5056586;28;20102;-72
2022/01/20 02:18:24;;;;;;;34.13;16.00;;;;;;;-1.51;100.00;100590.41;5074427;28;20435;-72
2022/01/20 02:20:54;;;;;;;36.88;16.25;;;;;;;-1.63;100.00;100582.63;5074149;28;20048;-70
2022/01/20 02:23:24;;;;;;;34.22;17.13;;;;;;;-1.65;100.00;100564.31;5073825;28;20401;-72
2022/01/20 02:25:52;;;;;;;42.03;16.48;;;;;;;-1.87;100.00;100563.56;5073412;28;20448;-71
2022/01/20 02:28:20;;;;;;;40.92;17.13;;;;;;;-1.89;100.00;100560.09;5073630;28;20094;-72
2022/01/20 02:30:49;;;;;;;36.22;16.48;;;;;;;-1.96;100.00;100563.59;5073844;28;20045;-71
2022/01/20 02:33:19;;;;;;;35.00;17.70;;;;;;;-2.09;100.00;100556.69;5073416;28;20052;-72
2022/01/20 02:35:50;;;;;;;42.95;16.58;;;;;;;-2.22;100.00;100566.34;5074018;28;20488;-71
2022/01/20 02:38:26;;;;;;;36.63;15.90;;;;;;;-2.18;100.00;100546.28;5073654;28;20054;-72
2022/01/20 02:46:26;;;;;;;34.65;16.27;;;;;;;-2.21;100.00;100551.53;5073468;28;20473;-70
2022/01/20 02:48:54;;;;;;;39.25;16.67;;;;;;;-2.32;100.00;100543.69;5073611;28;20443;-71
2022/01/20 02:51:23;;;;;;;33.78;15.82;;;;;;;-2.36;100.00;100549.81;5073191;28;20037;-71
2022/01/20 02:53:52;;;;;;;39.25;16.83;;;;;;;-2.30;100.00;100547.19;5073230;28;20127;-71
2022/01/20 02:56:23;;;;;;;34.97;15.95;;;;;;;-2.23;100.00;100550.63;5072975;28;20063;-70
2022/01/20 02:58:51;;;;;;;35.03;15.82;;;;;;;-2.31;100.00;100541.09;5073270;28;20068;-72
2022/01/20 03:01:20;;;;;;;34.85;15.75;;;;;;;-2.30;100.00;100536.75;5073104;28;20044;-72
2022/01/20 03:03:49;;;;;;;34.75;16.52;;;;;;;-2.39;100.00;100527.19;5073310;28;20113;-72
2022/01/20 03:06:17;;;;;;;35.30;15.25;;;;;;;-2.53;100.00;100521.13;5072820;28;20106;-72
2022/01/20 03:08:45;;;;;;;34.40;15.88;;;;;;;-2.41;100.00;100523.72;5073366;28;20545;-72
2022/01/20 03:11:15;;;;;;;41.58;15.60;;;;;;;-2.37;100.00;100520.19;5073068;28;20036;-74
2022/01/20 03:13:44;;;;;;;36.20;16.05;;;;;;;-2.49;100.00;100516.78;5073368;28;20075;-72
2022/01/20 03:16:12;;;;;;;35.35;15.63;;;;;;;-2.67;100.00;100517.69;5072869;28;20127;-71
2022/01/20 03:18:40;;;;;;;34.17;16.30;;;;;;;-2.74;100.00;100513.34;5073304;28;20124;-72
2022/01/20 03:21:08;;;;;;;37.63;16.90;;;;;;;-2.85;100.00;100508.13;5073174;28;20044;-71
2022/01/20 03:23:37;;;;;;;35.78;17.13;;;;;;;-2.77;100.00;100508.13;5072909;28;20091;-71
2022/01/20 03:26:05;;;;;;;34.20;15.95;;;;;;;-2.86;100.00;100508.16;5072774;28;20055;-70
2022/01/20 03:28:35;;;;;;;33.70;16.40;;;;;;;-2.74;100.00;100501.16;5055071;28;20102;-70
2022/01/20 03:31:03;;;;;;;37.03;16.52;;;;;;;-2.77;100.00;100497.69;5055543;28;20048;-72
2022/01/20 03:33:32;;;;;;;33.28;15.80;;;;;;;-2.66;100.00;100493.31;5072877;28;20154;-72
2022/01/20 03:36:00;;;;;;;39.35;16.67;;;;;;;-2.79;100.00;100489.00;5071916;28;20079;-73
2022/01/20 03:38:35;;;;;;;39.75;16.98;;;;;;;-2.84;100.00;100485.50;5072714;28;20489;-74
2022/01/20 03:41:03;;;;;;;36.53;16.02;;;;;;;-2.85;100.00;100483.78;5072999;28;20040;-73
2022/01/20 03:43:31;;;;;;;39.67;16.20;;;;;;;-2.82;100.00;100475.94;5072657;28;20045;-72
2022/01/20 03:46:03;;;;;;;38.22;17.52;;;;;;;-2.79;100.00;100478.56;5072918;28;20040;-73
2022/01/20 03:48:37;;;;;;;37.40;17.02;;;;;;;-2.92;100.00;100483.78;5054831;28;20079;-72
2022/01/20 03:51:06;;;;;;;39.42;18.02;;;;;;;-2.97;100.00;100480.31;5072998;28;20114;-73
2022/01/20 03:53:38;;;;;;;36.03;17.63;;;;;;;-2.97;100.00;100476.84;5072178;28;20044;-72
2022/01/20 03:56:07;;;;;;;38.47;17.05;;;;;;;-3.02;100.00;100471.63;5072621;28;20044;-73
2022/01/20 03:58:36;;;;;;;36.55;17.23;;;;;;;-3.02;100.00;100470.75;5072523;28;20052;-72
2022/01/20 04:01:05;;;;;;;36.88;17.25;;;;;;;-2.97;100.00;100475.09;5072835;28;20494;-70
2022/01/20 04:03:34;;;;;;;40.97;18.13;;;;;;;-2.83;100.00;100471.59;5072436;28;20045;-71
2022/01/20 04:06:02;;;;;;;39.83;17.55;;;;;;;-2.81;100.00;100465.47;5072510;28;20041;-71
2022/01/20 04:08:33;;;;;;;36.28;17.05;;;;;;;-2.75;100.00;100467.22;5072095;28;20070;-71
2022/01/20 04:11:04;;;;;;;38.13;17.25;;;;;;;-2.78;100.00;100465.50;5072729;28;20474;-71
2022/01/20 04:13:32;;;;;;;39.45;17.83;;;;;;;-2.77;100.00;100463.75;5072022;28;20086;-72
2022/01/20 04:16:10;;;;;;;38.50;18.05;;;;;;;-2.76;100.00;100460.25;5072247;28;20045;-72
2022/01/20 04:18:41;;;;;;;42.17;17.52;;;;;;;-2.76;100.00;100462.88;5072399;28;20132;-72
2022/01/20 04:21:12;;;;;;;40.95;17.98;;;;;;;-2.81;100.00;100464.59;5055013;28;20052;-72
2022/01/20 04:23:40;;;;;;;42.97;18.58;;;;;;;-2.74;100.00;100450.69;5072301;28;20074;-71
2022/01/20 04:26:08;;;;;;;44.40;18.10;;;;;;;-2.69;100.00;100443.72;5073158;28;20098;-72
2022/01/20 04:28:36;;;;;;;38.05;18.48;;;;;;;-2.69;100.00;100441.09;5073101;28;20044;-73
2022/01/20 04:31:04;;;;;;;40.75;18.20;;;;;;;-2.77;100.00;100455.91;5054856;28;20068;-71
2022/01/20 04:33:33;;;;;;;37.97;19.60;;;;;;;-2.86;100.00;100458.53;5072705;28;20037;-71
2022/01/20 04:36:03;;;;;;;39.78;18.40;;;;;;;-2.86;100.00;100466.38;5073095;28;20397;-71
2022/01/20 04:38:32;;;;;;;47.53;19.70;;;;;;;-2.86;100.00;100474.22;5074139;28;20064;-70
2022/01/20 04:41:01;;;;;;;42.05;19.15;;;;;;;-2.83;100.00;100474.19;5074686;28;20037;-69
2022/01/20 04:43:29;;;;;;;43.80;19.73;;;;;;;-2.78;100.00;100470.72;5074770;28;20439;-72
2022/01/20 04:46:04;;;;;;;42.20;17.63;;;;;;;-2.74;100.00;100466.34;5072372;28;20044;-71
2022/01/20 04:48:46;;;;;;;37.60;18.27;;;;;;;-2.86;100.00;100467.25;5056325;28;20064;-73
2022/01/20 04:57:16;;;;;;;43.70;19.77;;;;;;;-2.95;100.00;100470.75;5055861;28;20080;-70
2022/01/20 04:59:45;;;;;;;45.22;20.15;;;;;;;-2.89;100.00;100468.13;5076444;28;20037;-71
2022/01/20 05:02:14;;;;;;;47.00;19.50;;;;;;;-2.85;100.00;100460.28;5075861;28;20036;-72
2022/01/20 05:04:43;;;;;;;40.90;18.88;;;;;;;-2.90;100.00;100458.53;5075281;28;20094;-70
2022/01/20 05:07:19;;;;;;;42.22;18.52;;;;;;;-2.94;100.00;100469.00;5075288;28;20044;-72
2022/01/20 05:09:51;;;;;;;43.42;18.52;;;;;;;-3.02;100.00;100462.91;5075219;28;20079;-71
2022/01/20 05:12:25;;;;;;;37.65;18.20;;;;;;;-3.00;100.00;100454.22;5075365;28;20051;-70
2022/01/20 05:14:54;;;;;;;41.70;19.25;;;;;;;-3.01;100.00;100457.69;5075706;28;20048;-71
2022/01/20 05:17:23;;;;;;;38.40;19.23;;;;;;;-3.00;100.00;100448.97;5075102;28;20428;-72
2022/01/20 05:19:51;;;;;;;44.05;19.55;;;;;;;-3.10;100.00;100449.88;5075469;28;20040;-72
2022/01/20 05:22:20;;;;;;;40.65;19.25;;;;;;;-2.99;100.00;100461.19;5074851;28;20477;-72
2022/01/20 05:24:49;;;;;;;38.22;18.45;;;;;;;-3.16;100.00;100457.72;5074984;28;20050;-72
2022/01/20 05:27:17;;;;;;;44.53;19.23;;;;;;;-3.08;100.00;100462.94;5074942;28;20489;-72
2022/01/20 05:29:45;;;;;;;37.83;18.73;;;;;;;-3.06;100.00;100469.91;5074794;28;20515;-72
2022/01/20 05:32:14;;;;;;;44.75;19.40;;;;;;;-3.16;100.00;100462.94;5075246;28;20033;-72
2022/01/20 05:34:42;;;;;;;40.13;19.23;;;;;;;-3.17;100.00;100461.22;5074475;28;20090;-71
2022/01/20 05:37:12;;;;;;;39.92;19.30;;;;;;;-3.20;100.00;100456.84;5074710;28;20087;-71
2022/01/20 05:39:42;;;;;;;42.03;20.10;;;;;;;-3.18;100.00;100449.91;5074648;28;20044;-72
2022/01/20 05:42:11;;;;;;;46.50;21.67;;;;;;;-3.18;100.00;100454.25;5074749;28;20051;-73
2022/01/20 05:44:39;;;;;;;45.28;20.17;;;;;;;-3.19;100.00;100457.72;5074477;28;20066;-72
2022/01/20 05:47:11;;;;;;;41.42;20.15;;;;;;;-3.11;100.00;100461.19;5074832;28;20104;-73
2022/01/20 05:49:39;;;;;;;41.45;19.85;;;;;;;-3.19;100.00;100455.97;5074235;28;20086;-74
2022/01/20 05:52:08;;;;;;;39.05;20.33;;;;;;;-3.17;100.00;100466.44;5074362;28;20048;-71
2022/01/20 05:54:36;;;;;;;55.35;23.02;;;;;;;-3.21;100.00;100459.47;5073973;28;20037;-72
2022/01/20 05:57:10;;;;;;;43.50;20.60;;;;;;;-3.15;100.00;100453.38;5074519;28;20054;-73
2022/01/20 05:59:38;;;;;;;43.90;21.10;;;;;;;-3.11;100.00;100440.31;5073400;28;20101;-72
2022/01/20 06:02:12;;;;;;;49.22;21.20;;;;;;;-3.07;100.00;100435.97;5074161;28;20095;-72
2022/01/20 06:04:41;;;;;;;41.70;20.67;;;;;;;-3.11;100.00;100440.31;5073765;28;20127;-72
2022/01/20 06:07:09;;;;;;;41.40;21.10;;;;;;;-3.13;100.00;100435.97;5056438;28;20485;-72
2022/01/20 06:09:37;;;;;;;44.05;20.85;;;;;;;-3.10;100.00;100444.66;5073791;28;20071;-73
2022/01/20 06:12:08;;;;;;;49.30;20.27;;;;;;;-3.08;100.00;100440.31;5073884;28;20119;-72
2022/01/20 06:14:37;;;;;;;36.85;19.52;;;;;;;-3.01;100.00;100442.03;5073324;28;20036;-72
2022/01/20 06:17:05;;;;;;;44.65;20.02;;;;;;;-2.96;100.00;100440.28;5073799;28;20056;-73
2022/01/20 06:19:33;;;;;;;39.45;19.88;;;;;;;-2.71;100.00;100445.44;5073442;28;20040;-72
2022/01/20 06:22:01;;;;;;;47.40;22.33;;;;;;;-2.79;100.00;100440.25;5074006;28;20040;-72
2022/01/20 06:24:30;;;;;;;43.92;21.10;;;;;;;-2.78;100.00;100443.72;5073051;28;20460;-71
2022/01/20 06:27:00;;;;;;;47.00;22.38;;;;;;;-2.76;100.00;100447.19;5072876;28;20123;-73
2022/01/20 06:29:30;;;;;;;45.85;21.13;;;;;;;-2.58;100.00;100443.66;5073450;28;20097;-73
2022/01/20 06:31:58;;;;;;;52.75;21.45;;;;;;;-2.58;100.00;100447.16;5073927;28;20044;-72
2022/01/20 06:34:27;;;;;;;45.80;21.90;;;;;;;-2.49;100.00;100447.13;5073326;28;20045;-75
2022/01/20 06:36:55;;;;;;;40.85;20.42;;;;;;;-2.42;100.00;100447.94;5073467;28;20163;-72
2022/01/20 06:39:24;;;;;;;47.45;21.55;;;;;;;-2.41;100.00;100453.19;5073756;28;20147;-72
2022/01/20 06:41:54;;;;;;;53.10;21.20;;;;;;;-2.44;100.00;100455.78;5073693;28;20448;-74
2022/01/20 06:44:22;;;;;;;43.28;21.13;;;;;;;-2.37;100.00;100449.66;5073333;28;20068;-73
2022/01/20 06:46:52;;;;;;;47.92;22.67;;;;;;;-2.23;100.00;100451.31;5073395;28;20493;-74
2022/01/20 06:49:20;;;;;;;42.78;21.02;;;;;;;-2.26;100.00;100448.75;5073299;28;20040;-74
2022/01/20 06:51:51;;;;;;;51.25;21.75;;;;;;;-2.09;100.00;100452.13;5073295;28;20144;-74
2022/01/20 06:54:20;;;;;;;45.10;20.42;;;;;;;-1.82;100.00;100449.38;5073604;28;20047;-74
2022/01/20 06:56:48;;;;;;;43.40;20.13;;;;;;;-1.73;100.00;100441.44;5073263;28;20052;-73
2022/01/20 06:59:18;;;;;;;39.65;20.20;;;;;;;-1.79;100.00;100436.25;5073132;28;20048;-73
2022/01/20 07:01:48;;;;;;;43.70;21.13;;;;;;;-1.69;100.00;100418.75;5072699;28;20048;-73
2022/01/20 07:04:18;;;;;;;47.58;21.23;;;;;;;-1.64;100.00;100424.81;5073425;28;20055;-72
2022/01/20 07:06:47;;;;;;;42.30;20.42;;;;;;;-1.61;100.00;100416.09;5073400;28;20123;-72
2022/01/20 07:09:15;;;;;;;41.67;20.70;;;;;;;-1.67;100.00;100419.59;5072975;28;20124;-74
2022/01/20 07:11:43;;;;;;;45.15;21.52;;;;;;;-1.55;100.00;100418.63;5072943;28;20473;-72
2022/01/20 07:14:12;;;;;;;45.65;20.70;;;;;;;-1.51;100.00;100420.34;5072772;28;20044;-71
2022/01/20 07:16:40;;;;;;;47.55;21.55;;;;;;;-1.56;100.00;100412.53;5073010;28;20396;-71
2022/01/20 07:19:08;;;;;;;47.67;21.52;;;;;;;-1.47;100.00;100411.59;5073265;28;20055;-72
2022/01/20 07:21:38;;;;;;;50.00;20.98;;;;;;;-1.49;100.00;100416.84;5058260;28;20457;-73
2022/01/20 07:24:07;;;;;;;48.55;21.17;;;;;;;-1.43;100.00;100408.09;5073284;28;20044;-73
2022/01/20 07:26:35;;;;;;;45.42;21.25;;;;;;;-1.34;100.00;100405.38;5072988;28;20068;-71
2022/01/20 07:29:04;;;;;;;43.63;20.13;;;;;;;-1.28;100.00;100402.69;5073094;28;20044;-73
2022/01/20 07:31:32;;;;;;;44.80;20.55;;;;;;;-1.11;100.00;100399.03;5072798;28;20532;-72
2022/01/20 07:34:01;;;;;;;42.05;20.35;;;;;;;-1.17;100.00;100406.06;5073003;28;20464;-73
2022/01/20 07:36:29;;;;;;;42.97;21.48;;;;;;;-1.20;100.00;100400.88;5073055;28;20139;-73
2022/01/20 07:38:59;;;;;;;44.75;20.80;;;;;;;-1.22;100.00;100396.53;5072540;28;20052;-72
2022/01/20 07:41:27;;;;;;;44.85;21.77;;;;;;;-1.19;100.00;100397.34;5072999;28;20036;-72
2022/01/20 07:43:55;;;;;;;41.47;20.90;;;;;;;-1.01;100.00;100396.31;5072837;28;20048;-72
2022/01/20 07:46:26;;;;;;;43.20;20.40;;;;;;;-0.99;100.00;100396.28;5073034;28;20037;-72
2022/01/20 07:48:54;;;;;;;36.58;19.10;;;;;;;-0.96;100.00;100405.00;5072690;28;20051;-71
2022/01/20 07:51:22;;;;;;;42.50;20.02;;;;;;;-0.93;100.00;100393.63;5072692;28;20190;-71
2022/01/20 07:53:50;;;;;;;42.05;20.02;;;;;;;-0.90;100.00;100388.34;5072438;28;20090;-73
2022/01/20 07:56:20;;;;;;;41.55;20.70;;;;;;;-0.90;100.00;100377.84;5072681;28;20512;-71
2022/01/20 07:58:48;;;;;;;43.97;20.77;;;;;;;-0.89;100.00;100379.59;5072322;28;20040;-71
2022/01/20 08:01:17;;;;;;;42.47;21.50;;;;;;;-0.75;100.00;100376.81;5073027;28;20048;-71
2022/01/20 08:03:45;;;;;;;40.42;21.17;;;;;;;-0.69;100.00;100384.59;5072617;28;20471;-72
2022/01/20 08:06:14;;;;;;;44.72;20.25;;;;;;;-0.53;100.00;100385.28;5072924;28;20108;-72
2022/01/20 08:08:42;;;;;;;41.10;19.95;;;;;;;-0.45;100.00;100380.81;5072234;28;20090;-71
2022/01/20 08:11:11;;;;;;;38.20;19.48;;;;;;;-0.26;100.00;100374.41;5072583;28;20048;-72
2022/01/20 08:13:41;;;;;;;44.55;20.38;;;;;;;0.09;100.00;100388.75;5072338;28;20459;-71
2022/01/20 08:16:09;;;;;;;39.20;19.25;;;;;;;0.09;100.00;100392.25;5072701;28;20151;-71
2022/01/20 08:18:38;;;;;;;41.75;20.48;;;;;;;0.11;100.00;100393.09;5072295;28;20480;-73
2022/01/20 08:21:06;;;;;;;38.75;20.40;;;;;;;0.12;100.00;100397.47;5072406;28;20123;-71
2022/01/20 08:23:34;;;;;;;41.92;20.55;;;;;;;0.17;100.00;100395.63;5074633;28;20515;-77
2022/01/20 08:26:03;;;;;;;41.50;19.40;;;;;;;0.09;100.00;100394.84;5076201;28;20415;-71
2022/01/20 08:28:32;;;;;;;39.53;18.77;;;;;;;0.16;100.00;100400.88;5076434;28;20419;-73
2022/01/20 08:31:02;;;;;;;44.22;19.73;;;;;;;0.26;100.00;100397.22;5076366;28;20045;-72
2022/01/20 08:33:30;;;;;;;45.30;19.77;;;;;;;0.24;100.00;100394.63;5075996;28;20040;-72
2022/01/20 08:35:59;;;;;;;42.28;19.58;;;;;;;0.32;100.00;100389.28;5075605;28;20036;-71
2022/01/20 08:38:27;;;;;;;41.53;19.20;;;;;;;0.38;100.00;100397.03;5076286;28;20063;-72
2022/01/20 08:40:55;;;;;;;37.28;19.38;;;;;;;0.36;100.00;100401.44;5075934;28;20382;-71
2022/01/20 08:43:24;;;;;;;38.30;20.33;;;;;;;0.23;100.00;100399.91;5076273;28;20093;-71
2022/01/20 08:45:52;;;;;;;41.45;19.60;;;;;;;0.25;100.00;100392.88;5075470;28;20493;-71
2022/01/20 08:48:22;;;;;;;43.22;20.70;;;;;;;0.35;100.00;100391.84;5075975;28;20102;-72
2022/01/20 08:50:50;;;;;;;41.83;20.55;;;;;;;0.45;100.00;100382.91;5075737;28;20378;-72
2022/01/20 08:53:19;;;;;;;38.35;21.90;;;;;;;0.50;100.00;100381.09;5076097;28;20044;-72
2022/01/20 08:55:47;;;;;;;38.95;20.00;;;;;;;0.57;100.00;100385.31;5075586;28;20075;-73
2022/01/20 08:58:15;;;;;;;40.67;21.08;;;;;;;0.68;100.00;100381.69;5076022;28;20493;-71
2022/01/20 09:00:43;;;;;;;42.65;20.20;;;;;;;0.78;100.00;100393.75;5075589;28;20044;-72
2022/01/20 09:03:13;;;;;;;36.17;20.13;;;;;;;0.88;100.00;100392.69;5075748;28;20047;-71
2022/01/20 09:05:42;;;;;;;43.25;20.75;;;;;;;0.82;100.00;100392.78;5074989;28;20037;-72
2022/01/20 09:08:12;;;;;;;41.95;20.50;;;;;;;0.77;100.00;100405.13;5075698;28;20090;-71
2022/01/20 09:10:44;;;;;;;39.60;19.40;;;;;;;0.71;100.00;100400.00;5075653;28;20051;-71
2022/01/20 09:15:57;;;;;;;41.35;19.92;;;;;;;0.78;100.00;100396.38;5075348;28;20682;-72
2022/01/20 09:18:26;;;;;;;45.63;21.10;;;;;;;0.83;100.00;100395.38;5075503;28;20125;-72
2022/01/20 09:20:55;;;;;;;44.50;20.15;;;;;;;0.87;100.00;100401.47;5075274;28;20489;-72
2022/01/20 09:23:23;;;;;;;46.58;21.13;;;;;;;1.05;100.00;100390.56;5075400;28;20040;-72
2022/01/20 09:25:52;;;;;;;39.17;20.33;;;;;;;1.22;100.00;100398.16;5057325;28;20400;-71
2022/01/20 09:28:20;;;;;;;40.80;20.70;;;;;;;1.20;100.00;100399.06;5075175;28;20437;-71
2022/01/20 09:30:50;;;;;;;43.55;20.02;;;;;;;1.28;100.00;100390.16;5074790;28;20041;-73
2022/01/20 09:33:26;;;;;;;37.22;19.52;;;;;;;1.27;100.00;100390.19;5074760;28;20036;-72
2022/01/20 09:35:58;;;;;;;38.05;18.77;;;;;;;1.26;100.00;100391.09;5074243;28;20400;-71
2022/01/20 09:38:27;;;;;;;39.10;19.73;;;;;;;1.16;100.00;100382.53;5075405;28;20473;-72
2022/01/20 09:40:55;;;;;;;43.15;19.67;;;;;;;1.18;100.00;100385.13;5074926;28;20036;-71
2022/01/20 09:43:27;;;;;;;38.00;19.35;;;;;;;1.27;100.00;100390.19;5074991;28;20044;-72
2022/01/20 09:45:59;;;;;;;42.33;19.42;;;;;;;1.39;100.00;100384.66;5074089;28;20095;-72
2022/01/20 09:48:29;;;;;;;36.55;18.60;;;;;;;1.50;100.00;100381.81;5056813;28;20132;-71
2022/01/20 09:51:00;;;;;;;37.25;18.45;;;;;;;1.67;100.00;100377.94;5074646;28;20123;-72
2022/01/20 09:53:31;;;;;;;39.53;18.45;;;;;;;1.75;100.00;100384.78;5075075;28;20045;-72
2022/01/20 09:56:00;;;;;;;36.78;19.10;;;;;;;1.76;100.00;100386.53;5074325;28;20044;-72
2022/01/20 09:58:29;;;;;;;33.75;18.55;;;;;;;1.79;100.00;100389.06;5074854;28;20044;-72
2022/01/20 10:00:58;;;;;;;40.95;20.52;;;;;;;1.71;100.00;100387.47;5074584;28;20040;-72
2022/01/20 10:03:29;;;;;;;39.70;20.02;;;;;;;1.64;100.00;100380.63;5074292;28;20064;-72
2022/01/20 10:06:01;;;;;;;41.40;21.85;;;;;;;1.67;100.00;100375.31;5074250;28;20049;-71
2022/01/20 10:08:31;;;;;;;37.88;19.90;;;;;;;1.63;100.00;100371.00;5074672;28;20041;-72
2022/01/20 10:11:01;;;;;;;14.10;7.10;;;;;;;2.21;100.00;100358.25;5073942;28;20040;-72
2022/01/20 10:13:30;;;;;;;19.77;10.50;;;;;;;2.46;100.00;100371.69;5074142;28;20472;-72
2022/01/20 10:16:02;;;;;;;22.05;9.75;;;;;;;2.62;100.00;100367.78;5074252;28;20090;-72
2022/01/20 10:18:32;;;;;;;15.68;7.32;;;;;;;2.74;100.00;100356.91;5074157;28;20045;-71
2022/01/20 10:21:04;;;;;;;16.35;8.43;;;;;;;2.74;100.00;100351.66;5073860;28;20511;-72
2022/01/20 10:23:36;;;;;;;15.55;9.52;;;;;;;2.81;100.00;100342.69;5073960;28;20047;-72
2022/01/20 10:26:11;;;;;;;19.08;8.93;;;;;;;2.80;100.00;100343.59;5073949;28;20048;-71
2022/01/20 10:28:51;;;;;;;17.35;8.93;;;;;;;2.83;100.00;100335.59;5056216;28;20048;-71
2022/01/20 10:31:33;;;;;;;11.55;6.03;;;;;;;2.77;100.00;100335.75;5074089;28;20076;-71
2022/01/20 10:34:02;;;;;;;12.30;7.03;;;;;;;2.83;100.00;100335.59;5073891;28;20507;-71
2022/01/20 10:36:39;;;;;;;17.20;8.77;;;;;;;2.85;100.00;100323.25;5074036;28;20072;-72
2022/01/20 10:39:08;;;;;;;13.35;6.05;;;;;;;2.83;100.00;100322.44;5073690;28;20041;-72
2022/01/20 10:41:38;;;;;;;13.05;7.13;;;;;;;2.85;100.00;100312.69;5073764;28;20041;-71
2022/01/20 10:44:09;;;;;;;8.65;5.90;;;;;;;2.78;100.00;100305.88;5089199;28;20394;-72
2022/01/20 10:46:46;;;;;;;10.90;6.30;;;;;;;2.81;100.00;100305.81;5073490;28;20044;-71
2022/01/20 10:49:15;;;;;;;13.15;7.40;;;;;;;2.92;100.00;100309.91;5074122;28;20055;-72
2022/01/20 10:51:56;;;;;;;8.25;4.82;;;;;;;2.92;100.00;100302.00;5073336;28;20036;-72
2022/01/20 10:54:24;;;;;;;7.80;4.22;;;;;;;2.96;100.00;100301.00;5073406;28;20102;-73
2022/01/20 10:56:55;;;;;;;7.22;3.75;;;;;;;2.98;100.00;100278.09;5073407;28;20127;-72
2022/01/20 10:59:24;;;;;;;9.15;4.72;;;;;;;3.02;100.00;100277.97;5073131;28;20064;-72
2022/01/20 11:02:05;;;;;;;11.90;5.65;;;;;;;3.19;100.00;100276.63;5072888;28;20098;-72
2022/01/20 11:04:34;;;;;;;12.95;5.90;;;;;;;3.24;100.00;100269.44;5073527;28;20036;-72
2022/01/20 11:07:07;;;;;;;5.22;3.17;;;;;;;3.26;100.00;100257.94;5073412;28;20396;-73
2022/01/20 11:09:42;;;;;;;9.52;4.88;;;;;;;3.39;100.00;100248.75;5073434;28;20147;-71
2022/01/20 11:12:13;;;;;;;9.77;5.97;;;;;;;3.39;100.00;100250.53;5073313;28;20048;-72
2022/01/20 11:14:44;;;;;;;6.45;3.95;;;;;;;3.41;100.00;100248.72;5073677;28;20051;-72
2022/01/20 11:17:19;;;;;;;8.75;3.95;;;;;;;3.37;100.00;100241.78;5073248;28;20128;-72
2022/01/20 11:19:47;;;;;;;7.53;3.80;;;;;;;3.42;100.00;100247.78;5073208;28;20044;-72
2022/01/20 11:22:19;;;;;;;9.55;4.28;;;;;;;3.51;100.00;100244.88;5073095;28;20050;-72
2022/01/20 11:24:58;;;;;;;5.97;3.13;;;;;;;3.41;100.00;100241.66;5072635;28;20041;-72
2022/01/20 11:27:36;;;;;;;9.80;5.65;;;;;;;3.49;100.00;100240.56;5073383;28;20045;-71
2022/01/20 11:30:17;;;;;;;8.93;4.75;;;;;;;3.51;100.00;100241.38;5072994;28;20040;-72
2022/01/20 11:32:58;;;;;;;10.35;4.70;;;;;;;3.50;100.00;100229.09;5073329;28;20047;-72
2022/01/20 11:35:37;;;;;;;7.55;3.83;;;;;;;3.58;100.00;100219.19;5073232;28;20477;-72
2022/01/20 11:38:07;;;;;;;10.05;5.00;;;;;;;3.58;100.00;100216.53;5073199;28;20061;-71
2022/01/20 11:40:48;;;;;;;9.45;5.65;;;;;;;3.69;100.00;100222.31;5055625;28;20440;-72
2022/01/20 11:43:16;;;;;;;9.88;4.30;;;;;;;3.64;100.00;100206.63;5073109;28;20477;-72
2022/01/20 11:45:49;;;;;;;5.40;3.45;;;;;;;3.67;100.00;100203.06;5072937;28;20124;-71
2022/01/20 11:48:21;;;;;;;7.93;4.18;;;;;;;3.70;100.00;100203.81;5072951;28;20046;-72
2022/01/20 11:51:04;;;;;;;6.65;2.67;;;;;;;3.69;100.00;100190.66;5072818;28;20435;-72
2022/01/20 11:53:40;;;;;;;10.82;4.80;;;;;;;3.69;100.00;100191.53;5072984;28;20081;-72
2022/01/20 11:56:10;;;;;;;9.32;5.15;;;;;;;3.81;100.00;100195.53;5072838;28;20058;-73
2022/01/20 11:58:49;;;;;;;7.57;3.95;;;;;;;3.77;100.00;100175.44;5075297;28;20048;-71
2022/01/20 12:01:18;;;;;;;8.48;4.13;;;;;;;3.78;100.00;100171.03;5077257;28;20123;-72
2022/01/20 12:03:51;;;;;;;11.93;4.75;;;;;;;3.84;100.00;100169.03;5077139;28;20041;-72
2022/01/20 12:06:24;;;;;;;8.82;5.30;;;;;;;3.85;100.00;100175.16;5076631;28;20101;-73
2022/01/20 12:08:56;;;;;;;7.28;4.60;;;;;;;3.87;100.00;100158.41;5076671;28;20095;-70